UGSB/BUS METAR and TAF weather

Enter ICAO airport designator
Station Type Date Time Source
UGSB METAR 2020/04/04 12:00 UTC NOAA

UGSB 041200Z 35008KT CAVOK 12/09 Q1023 NOSIG


Station Type Date Time Source
UGSB Decoded METAR 2020/04/04 12:00 UTC NOAA

Station name not available
Apr 04, 2020 - 08:00 AM EDT / 2020.04.04 1200 UTC
Wind: from the N (350 degrees) at 9 MPH (8 KT):0
Visibility: greater than 7 mile(s):0
Temperature: 53 F (12 C)
Dew Point: 48 F (9 C)
Relative Humidity: 81%
Pressure (altimeter): 30.21 in. Hg (1023 hPa)
ob: UGSB 041200Z 35008KT CAVOK 12/09 Q1023 NOSIG
cycle: 12

Station Type Date Time Source
UGSB TAF 2020/04/04 12:05 UTC NOAA

TAF UGSB 041100Z 0412/0512 33006KT CAVOK TX13/0412Z TN09/0500Z
TEMPO 0414/0419 VRB03KT FEW030
BECMG 0418/0421 13011KT FEW026 SCT100
BECMG 0507/0509 34006KT

Example: see airport list